sensor_id;sensor_type;location;lat;lon;timestamp;pressure;altitude;pressure_sealevel;temperature;humidity
22753;BME280;11543;43.144;24.684;2023-04-01T00:01:47;97825.88;;;13.29;55.41
22753;BME280;11543;43.144;24.684;2023-04-01T00:04:12;97829.66;;;13.34;55.11
22753;BME280;11543;43.144;24.684;2023-04-01T00:06:38;97830.03;;;13.31;55.07
22753;BME280;11543;43.144;24.684;2023-04-01T00:09:03;97826.31;;;13.32;54.93
22753;BME280;11543;43.144;24.684;2023-04-01T00:11:29;97832.97;;;13.36;55.20
22753;BME280;11543;43.144;24.684;2023-04-01T00:13:54;97822.19;;;13.36;55.07
22753;BME280;11543;43.144;24.684;2023-04-01T00:16:20;97813.09;;;13.37;54.99
22753;BME280;11543;43.144;24.684;2023-04-01T00:18:47;97813.47;;;13.34;54.94
22753;BME280;11543;43.144;24.684;2023-04-01T00:21:13;97815.38;;;13.41;54.75
22753;BME280;11543;43.144;24.684;2023-04-01T00:23:40;97805.16;;;13.29;54.78
22753;BME280;11543;43.144;24.684;2023-04-01T00:26:05;97798.81;;;13.16;55.63
22753;BME280;11543;43.144;24.684;2023-04-01T00:28:34;97781.78;;;13.08;55.69
22753;BME280;11543;43.144;24.684;2023-04-01T00:31:05;97796.16;;;12.94;56.35
22753;BME280;11543;43.144;24.684;2023-04-01T00:33:31;97804.38;;;12.86;56.75
22753;BME280;11543;43.144;24.684;2023-04-01T00:36:08;97810.47;;;12.73;57.38
22753;BME280;11543;43.144;24.684;2023-04-01T00:38:35;97803.38;;;12.66;57.02
22753;BME280;11543;43.144;24.684;2023-04-01T00:41:01;97800.00;;;12.57;57.75
22753;BME280;11543;43.144;24.684;2023-04-01T00:43:27;97800.00;;;12.57;57.80
22753;BME280;11543;43.144;24.684;2023-04-01T00:45:52;97791.53;;;12.60;57.69
22753;BME280;11543;43.144;24.684;2023-04-01T00:48:54;97771.69;;;12.61;57.62
22753;BME280;11543;43.144;24.684;2023-04-01T00:51:27;97779.75;;;12.61;57.54
22753;BME280;11543;43.144;24.684;2023-04-01T00:53:56;97783.56;;;12.73;57.21
22753;BME280;11543;43.144;24.684;2023-04-01T00:56:26;97781.53;;;12.75;57.18
22753;BME280;11543;43.144;24.684;2023-04-01T00:59:02;97776.53;;;12.72;57.16
22753;BME280;11543;43.144;24.684;2023-04-01T01:01:30;97781.28;;;12.70;57.09
22753;BME280;11543;43.144;24.684;2023-04-01T01:03:57;97777.69;;;12.63;57.30
22753;BME280;11543;43.144;24.684;2023-04-01T01:12:19;97768.59;;;12.64;57.35
22753;BME280;11543;43.144;24.684;2023-04-01T01:14:54;97768.06;;;12.75;57.01
22753;BME280;11543;43.144;24.684;2023-04-01T01:17:56;97761.69;;;12.83;56.82
22753;BME280;11543;43.144;24.684;2023-04-01T01:31:43;97743.44;;;12.79;56.72
22753;BME280;11543;43.144;24.684;2023-04-01T01:34:34;97739.34;;;12.83;56.69
22753;BME280;11543;43.144;24.684;2023-04-01T01:37:16;97751.63;;;12.92;56.63
22753;BME280;11543;43.144;24.684;2023-04-01T01:39:46;97730.88;;;12.86;56.67
22753;BME280;11543;43.144;24.684;2023-04-01T01:42:15;97719.47;;;12.84;56.54
22753;BME280;11543;43.144;24.684;2023-04-01T01:44:43;97734.69;;;12.98;56.49
22753;BME280;11543;43.144;24.684;2023-04-01T01:47:10;97714.91;;;12.84;56.39
22753;BME280;11543;43.144;24.684;2023-04-01T01:49:38;97723.66;;;12.93;56.63
22753;BME280;11543;43.144;24.684;2023-04-01T01:52:05;97726.59;;;12.98;56.66
22753;BME280;11543;43.144;24.684;2023-04-01T01:54:31;97715.84;;;12.98;56.47
22753;BME280;11543;43.144;24.684;2023-04-01T01:57:08;97714.97;;;12.91;56.66
22753;BME280;11543;43.144;24.684;2023-04-01T01:59:37;97716.63;;;12.92;56.49
22753;BME280;11543;43.144;24.684;2023-04-01T02:02:05;97728.25;;;12.99;56.56
22753;BME280;11543;43.144;24.684;2023-04-01T02:04:39;97708.69;;;12.84;56.79
22753;BME280;11543;43.144;24.684;2023-04-01T02:07:13;97702.25;;;12.78;57.19
22753;BME280;11543;43.144;24.684;2023-04-01T02:09:41;97703.47;;;12.75;57.08
22753;BME280;11543;43.144;24.684;2023-04-01T02:12:08;97700.38;;;12.79;57.05
22753;BME280;11543;43.144;24.684;2023-04-01T02:15:08;97702.50;;;12.83;56.97
22753;BME280;11543;43.144;24.684;2023-04-01T02:17:34;97706.00;;;12.84;56.94
22753;BME280;11543;43.144;24.684;2023-04-01T02:20:04;97701.66;;;12.83;56.68
22753;BME280;11543;43.144;24.684;2023-04-01T02:22:35;97703.31;;;12.84;56.81
22753;BME280;11543;43.144;24.684;2023-04-01T02:25:06;97715.78;;;12.91;56.81
22753;BME280;11543;43.144;24.684;2023-04-01T02:27:33;97706.66;;;12.86;56.98
22753;BME280;11543;43.144;24.684;2023-04-01T02:29:59;97695.19;;;12.77;57.06
22753;BME280;11543;43.144;24.684;2023-04-01T02:32:26;97677.97;;;12.71;57.08
22753;BME280;11543;43.144;24.684;2023-04-01T02:34:53;97689.03;;;12.83;56.94
22753;BME280;11543;43.144;24.684;2023-04-01T02:37:19;97695.41;;;12.75;56.98
22753;BME280;11543;43.144;24.684;2023-04-01T02:39:45;97684.00;;;12.73;56.91
22753;BME280;11543;43.144;24.684;2023-04-01T02:42:10;97680.84;;;12.63;57.12
22753;BME280;11543;43.144;24.684;2023-04-01T02:44:36;97686.22;;;12.63;57.07
22753;BME280;11543;43.144;24.684;2023-04-01T02:47:02;97665.88;;;12.54;57.20
22753;BME280;11543;43.144;24.684;2023-04-01T02:49:28;97673.34;;;12.59;57.10
22753;BME280;11543;43.144;24.684;2023-04-01T02:51:53;97667.53;;;12.55;57.11
22753;BME280;11543;43.144;24.684;2023-04-01T02:54:19;97668.75;;;12.53;57.13
22753;BME280;11543;43.144;24.684;2023-04-01T02:56:45;97668.78;;;12.59;57.17
22753;BME280;11543;43.144;24.684;2023-04-01T02:59:11;97661.75;;;12.58;56.90
22753;BME280;11543;43.144;24.684;2023-04-01T03:01:37;97670.50;;;12.67;56.86
22753;BME280;11543;43.144;24.684;2023-04-01T03:04:03;97664.28;;;12.66;57.01
22753;BME280;11543;43.144;24.684;2023-04-01T03:06:29;97658.03;;;12.59;57.05
22753;BME280;11543;43.144;24.684;2023-04-01T03:08:55;97674.84;;;12.68;57.26
22753;BME280;11543;43.144;24.684;2023-04-01T03:11:21;97677.97;;;12.71;56.95
22753;BME280;11543;43.144;24.684;2023-04-01T03:13:47;97661.22;;;12.69;57.06
22753;BME280;11543;43.144;24.684;2023-04-01T03:16:12;97658.75;;;12.74;56.75
22753;BME280;11543;43.144;24.684;2023-04-01T03:18:38;97658.13;;;12.72;56.79
22753;BME280;11543;43.144;24.684;2023-04-01T03:21:23;97661.28;;;12.83;56.80
22753;BME280;11543;43.144;24.684;2023-04-01T03:23:50;97653.38;;;12.74;56.80
22753;BME280;11543;43.144;24.684;2023-04-01T03:26:16;97676.00;;;12.87;56.82
22753;BME280;11543;43.144;24.684;2023-04-01T03:28:42;97670.19;;;12.83;56.74
22753;BME280;11543;43.144;24.684;2023-04-01T03:31:07;97651.31;;;12.76;56.64
22753;BME280;11543;43.144;24.684;2023-04-01T03:33:33;97659.78;;;12.73;56.86
22753;BME280;11543;43.144;24.684;2023-04-01T03:35:59;97669.34;;;12.83;56.66
22753;BME280;11543;43.144;24.684;2023-04-01T03:38:24;97664.81;;;12.83;56.72
22753;BME280;11543;43.144;24.684;2023-04-01T03:40:50;97661.91;;;12.85;56.55
22753;BME280;11543;43.144;24.684;2023-04-01T03:43:15;97663.19;;;12.89;56.62
22753;BME280;11543;43.144;24.684;2023-04-01T03:45:50;97638.69;;;12.77;56.50
22753;BME280;11543;43.144;24.684;2023-04-01T03:48:16;97669.63;;;12.94;56.45
22753;BME280;11543;43.144;24.684;2023-04-01T03:50:42;97662.19;;;12.96;56.18
22753;BME280;11543;43.144;24.684;2023-04-01T03:53:08;97654.50;;;12.93;56.48
22753;BME280;11543;43.144;24.684;2023-04-01T03:55:36;97667.00;;;13.01;56.41
22753;BME280;11543;43.144;24.684;2023-04-01T03:58:02;97668.28;;;13.05;56.19
22753;BME280;11543;43.144;24.684;2023-04-01T04:00:28;97662.00;;;12.98;56.09
22753;BME280;11543;43.144;24.684;2023-04-01T04:02:54;97662.25;;;13.03;55.99
22753;BME280;11543;43.144;24.684;2023-04-01T04:05:22;97650.88;;;13.07;55.83
22753;BME280;11543;43.144;24.684;2023-04-01T04:07:48;97649.66;;;13.10;55.67
22753;BME280;11543;43.144;24.684;2023-04-01T04:10:14;97656.94;;;13.16;55.65
22753;BME280;11543;43.144;24.684;2023-04-01T04:12:40;97657.59;;;13.18;55.41
22753;BME280;11543;43.144;24.684;2023-04-01T04:15:06;97659.38;;;13.11;56.02
22753;BME280;11543;43.144;24.684;2023-04-01T04:17:32;97653.38;;;13.09;56.45
22753;BME280;11543;43.144;24.684;2023-04-01T04:19:58;97652.88;;;12.99;57.17
22753;BME280;11543;43.144;24.684;2023-04-01T04:22:23;97655.34;;;12.94;57.72
22753;BME280;11543;43.144;24.684;2023-04-01T04:24:49;97657.00;;;12.95;58.09
22753;BME280;11543;43.144;24.684;2023-04-01T04:27:14;97645.78;;;12.85;57.93
22753;BME280;11543;43.144;24.684;2023-04-01T04:29:40;97662.00;;;12.98;57.75
22753;BME280;11543;43.144;24.684;2023-04-01T04:32:06;97636.66;;;12.86;57.92
22753;BME280;11543;43.144;24.684;2023-04-01T04:34:32;97662.00;;;12.98;57.59
22753;BME280;11543;43.144;24.684;2023-04-01T04:36:58;97664.03;;;12.96;57.60
22753;BME280;11543;43.144;24.684;2023-04-01T04:39:23;97649.97;;;12.94;57.54
22753;BME280;11543;43.144;24.684;2023-04-01T04:41:49;97652.50;;;13.02;57.44
22753;BME280;11543;43.144;24.684;2023-04-01T04:44:15;97659.19;;;13.13;57.20
22753;BME280;11543;43.144;24.684;2023-04-01T04:46:40;97660.50;;;13.23;57.06
22753;BME280;11543;43.144;24.684;2023-04-01T04:49:06;97665.09;;;13.29;56.89
22753;BME280;11543;43.144;24.684;2023-04-01T04:51:32;97646.00;;;13.24;56.78
22753;BME280;11543;43.144;24.684;2023-04-01T04:54:02;97653.53;;;13.35;56.56
22753;BME280;11543;43.144;24.684;2023-04-01T04:56:28;97649.56;;;13.31;56.18
22753;BME280;11543;43.144;24.684;2023-04-01T04:58:54;97642.75;;;13.35;55.99
22753;BME280;11543;43.144;24.684;2023-04-01T05:01:20;97659.34;;;13.46;55.77
22753;BME280;11543;43.144;24.684;2023-04-01T05:03:46;97650.22;;;13.47;55.40
22753;BME280;11543;43.144;24.684;2023-04-01T05:06:13;97649.78;;;13.36;54.83
22753;BME280;11543;43.144;24.684;2023-04-01T05:08:40;97641.47;;;13.31;55.37
22753;BME280;11543;43.144;24.684;2023-04-01T05:11:09;97652.13;;;13.53;54.75
22753;BME280;11543;43.144;24.684;2023-04-01T05:13:36;97658.56;;;13.65;52.97
22753;BME280;11543;43.144;24.684;2023-04-01T05:16:02;97648.09;;;13.96;52.05
22753;BME280;11543;43.144;24.684;2023-04-01T05:18:28;97635.84;;;14.14;52.49
22753;BME280;11543;43.144;24.684;2023-04-01T05:20:54;97634.59;;;14.36;53.64
22753;BME280;11543;43.144;24.684;2023-04-01T05:23:21;97642.94;;;14.54;56.00
22753;BME280;11543;43.144;24.684;2023-04-01T05:25:48;97629.22;;;14.49;57.71
22753;BME280;11543;43.144;24.684;2023-04-01T05:28:15;97633.78;;;14.55;58.81
22753;BME280;11543;43.144;24.684;2023-04-01T05:30:42;97649.78;;;14.50;58.66
22753;BME280;11543;43.144;24.684;2023-04-01T05:33:09;97648.53;;;14.46;59.19
22753;BME280;11543;43.144;24.684;2023-04-01T05:35:35;97640.88;;;14.43;60.48
22753;BME280;11543;43.144;24.684;2023-04-01T05:38:04;97654.94;;;14.39;61.20
22753;BME280;11543;43.144;24.684;2023-04-01T05:40:32;97643.13;;;14.33;62.20
22753;BME280;11543;43.144;24.684;2023-04-01T05:43:13;97628.41;;;14.22;63.35
22753;BME280;11543;43.144;24.684;2023-04-01T05:45:42;97636.69;;;14.21;63.56
22753;BME280;11543;43.144;24.684;2023-04-01T05:51:12;97616.16;;;14.26;63.60
22753;BME280;11543;43.144;24.684;2023-04-01T05:53:52;97623.84;;;14.49;63.65
22753;BME280;11543;43.144;24.684;2023-04-01T05:56:18;97601.00;;;14.45;63.72
22753;BME280;11543;43.144;24.684;2023-04-01T05:59:03;97590.63;;;14.49;64.61
22753;BME280;11543;43.144;24.684;2023-04-01T06:01:31;97582.94;;;14.52;64.73
22753;BME280;11543;43.144;24.684;2023-04-01T06:04:00;97588.53;;;14.57;64.52
22753;BME280;11543;43.144;24.684;2023-04-01T06:06:28;97592.25;;;14.63;64.60
22753;BME280;11543;43.144;24.684;2023-04-01T06:12:56;97571.25;;;14.72;64.42
22753;BME280;11543;43.144;24.684;2023-04-01T06:15:57;97563.78;;;14.67;64.57
22753;BME280;11543;43.144;24.684;2023-04-01T06:27:54;97563.63;;;14.55;66.46
22753;BME280;11543;43.144;24.684;2023-04-01T06:30:54;97589.75;;;14.68;66.31
22753;BME280;11543;43.144;24.684;2023-04-01T06:36:36;97581.44;;;14.83;64.86
22753;BME280;11543;43.144;24.684;2023-04-01T06:53:58;97576.53;;;15.11;62.46
22753;BME280;11543;43.144;24.684;2023-04-01T06:56:28;97546.84;;;15.05;62.36
22753;BME280;11543;43.144;24.684;2023-04-01T06:59:02;97566.53;;;15.18;62.23
22753;BME280;11543;43.144;24.684;2023-04-01T07:04:16;97575.34;;;15.39;61.85
22753;BME280;11543;43.144;24.684;2023-04-01T07:09:50;97541.00;;;15.46;61.34
22753;BME280;11543;43.144;24.684;2023-04-01T07:12:43;97547.59;;;15.63;61.51
22753;BME280;11543;43.144;24.684;2023-04-01T07:15:40;97533.66;;;15.66;61.26
22753;BME280;11543;43.144;24.684;2023-04-01T07:18:15;97550.97;;;15.83;61.46
22753;BME280;11543;43.144;24.684;2023-04-01T07:20:46;97550.50;;;15.93;61.41
22753;BME280;11543;43.144;24.684;2023-04-01T07:23:23;97560.97;;;16.08;61.63
22753;BME280;11543;43.144;24.684;2023-04-01T07:26:05;97537.84;;;16.12;61.27
22753;BME280;11543;43.144;24.684;2023-04-01T07:28:33;97537.72;;;16.25;60.98
22753;BME280;11543;43.144;24.684;2023-04-01T07:31:18;97547.28;;;16.46;60.75
22753;BME280;11543;43.144;24.684;2023-04-01T07:42:43;97524.25;;;16.80;59.94
22753;BME280;11543;43.144;24.684;2023-04-01T07:50:50;97511.13;;;17.13;58.56
22753;BME280;11543;43.144;24.684;2023-04-01T07:56:14;97531.06;;;17.49;58.60
22753;BME280;11543;43.144;24.684;2023-04-01T07:58:57;97535.09;;;17.58;58.18
22753;BME280;11543;43.144;24.684;2023-04-01T08:02:05;97537.06;;;17.69;57.79
22753;BME280;11543;43.144;24.684;2023-04-01T08:21:28;97540.88;;;18.15;57.03
22753;BME280;11543;43.144;24.684;2023-04-01T08:23:57;97528.25;;;18.09;56.99
22753;BME280;11543;43.144;24.684;2023-04-01T08:26:35;97532.38;;;18.11;56.71
22753;BME280;11543;43.144;24.684;2023-04-01T08:29:21;97525.06;;;18.00;56.61
22753;BME280;11543;43.144;24.684;2023-04-01T08:31:54;97507.59;;;17.96;56.36
22753;BME280;11543;43.144;24.684;2023-04-01T08:34:25;97504.78;;;18.03;55.75
22753;BME280;11543;43.144;24.684;2023-04-01T08:37:11;97530.84;;;18.04;55.60
22753;BME280;11543;43.144;24.684;2023-04-01T08:39:41;97517.88;;;18.06;56.33
22753;BME280;11543;43.144;24.684;2023-04-01T08:42:23;97514.72;;;18.21;57.42
22753;BME280;11543;43.144;24.684;2023-04-01T08:45:38;97496.06;;;18.24;57.05
22753;BME280;11543;43.144;24.684;2023-04-01T08:53:35;97497.25;;;18.28;56.82
22753;BME280;11543;43.144;24.684;2023-04-01T09:04:31;97486.91;;;18.77;55.63
22753;BME280;11543;43.144;24.684;2023-04-01T09:07:21;97493.94;;;19.01;54.86
22753;BME280;11543;43.144;24.684;2023-04-01T09:10:35;97490.22;;;19.19;53.56
22753;BME280;11543;43.144;24.684;2023-04-01T09:21:43;97460.28;;;19.48;50.92
22753;BME280;11543;43.144;24.684;2023-04-01T09:35:18;97428.81;;;20.19;50.08
22753;BME280;11543;43.144;24.684;2023-04-01T10:02:27;97380.38;;;22.14;43.20
22753;BME280;11543;43.144;24.684;2023-04-01T10:11:04;97376.91;;;22.92;38.16
22753;BME280;11543;43.144;24.684;2023-04-01T10:16:50;97373.94;;;23.08;37.36
22753;BME280;11543;43.144;24.684;2023-04-01T10:25:10;97367.66;;;23.38;34.08
22753;BME280;11543;43.144;24.684;2023-04-01T10:35:51;97344.13;;;23.88;35.16
22753;BME280;11543;43.144;24.684;2023-04-01T10:39:00;97336.66;;;24.14;35.39
22753;BME280;11543;43.144;24.684;2023-04-01T10:59:15;97301.00;;;24.39;32.39
22753;BME280;11543;43.144;24.684;2023-04-01T11:21:22;97273.56;;;24.44;34.72
22753;BME280;11543;43.144;24.684;2023-04-01T11:26:52;97285.72;;;24.13;38.11
22753;BME280;11543;43.144;24.684;2023-04-01T11:32:28;97280.34;;;23.82;38.94
22753;BME280;11543;43.144;24.684;2023-04-01T11:35:23;97278.72;;;23.71;38.61
22753;BME280;11543;43.144;24.684;2023-04-01T11:40:51;97261.50;;;23.50;39.24
22753;BME280;11543;43.144;24.684;2023-04-01T11:43:39;97260.41;;;23.46;39.63
22753;BME280;11543;43.144;24.684;2023-04-01T11:46:25;97234.69;;;23.17;39.82
22753;BME280;11543;43.144;24.684;2023-04-01T12:05:54;97271.28;;;22.55;40.73
22753;BME280;11543;43.144;24.684;2023-04-01T12:08:51;97276.16;;;22.53;40.80
22753;BME280;11543;43.144;24.684;2023-04-01T12:11:38;97267.41;;;22.46;39.87
22753;BME280;11543;43.144;24.684;2023-04-01T12:16:58;97263.56;;;22.47;40.30
22753;BME280;11543;43.144;24.684;2023-04-01T12:20:10;97261.72;;;22.58;39.65
22753;BME280;11543;43.144;24.684;2023-04-01T12:22:47;97258.09;;;22.37;40.32
22753;BME280;11543;43.144;24.684;2023-04-01T12:25:24;97262.72;;;22.36;40.27
22753;BME280;11543;43.144;24.684;2023-04-01T12:36:32;97256.72;;;21.72;41.70
22753;BME280;11543;43.144;24.684;2023-04-01T12:39:28;97258.75;;;21.49;42.14
22753;BME280;11543;43.144;24.684;2023-04-01T12:55:35;97267.63;;;20.44;44.71
22753;BME280;11543;43.144;24.684;2023-04-01T13:13:55;97343.25;;;19.26;49.42
22753;BME280;11543;43.144;24.684;2023-04-01T13:22:17;97382.28;;;18.74;51.69
22753;BME280;11543;43.144;24.684;2023-04-01T13:25:06;97393.63;;;18.60;52.44
22753;BME280;11543;43.144;24.684;2023-04-01T14:01:42;97518.44;;;14.05;83.88
22753;BME280;11543;43.144;24.684;2023-04-01T14:07:33;97515.13;;;14.16;84.50
22753;BME280;11543;43.144;24.684;2023-04-01T14:10:34;97525.69;;;14.17;85.11
22753;BME280;11543;43.144;24.684;2023-04-01T14:13:18;97517.56;;;14.30;84.39
22753;BME280;11543;43.144;24.684;2023-04-01T16:43:56;97378.56;;;16.70;67.78
22753;BME280;11543;43.144;24.684;2023-04-01T16:46:41;97371.56;;;16.63;67.41
22753;BME280;11543;43.144;24.684;2023-04-01T16:54:59;97394.00;;;16.51;66.26
22753;BME280;11543;43.144;24.684;2023-04-01T16:57:50;97404.97;;;16.20;66.97
22753;BME280;11543;43.144;24.684;2023-04-01T17:02:51;97425.66;;;15.71;70.24
22753;BME280;11543;43.144;24.684;2023-04-01T17:05:18;97422.41;;;15.31;71.34
22753;BME280;11543;43.144;24.684;2023-04-01T17:08:00;97449.84;;;15.03;74.21
22753;BME280;11543;43.144;24.684;2023-04-01T17:10:53;97481.78;;;14.75;75.96
22753;BME280;11543;43.144;24.684;2023-04-01T17:13:27;97501.44;;;14.11;79.34
22753;BME280;11543;43.144;24.684;2023-04-01T17:18:49;97572.97;;;13.60;83.14
22753;BME280;11543;43.144;24.684;2023-04-01T17:21:38;97575.63;;;13.54;79.44
22753;BME280;11543;43.144;24.684;2023-04-01T17:27:08;97583.16;;;12.69;84.02
22753;BME280;11543;43.144;24.684;2023-04-01T17:32:50;97602.69;;;12.43;86.70
22753;BME280;11543;43.144;24.684;2023-04-01T17:35:27;97597.03;;;12.32;87.17
22753;BME280;11543;43.144;24.684;2023-04-01T17:41:57;97606.50;;;12.28;87.88
22753;BME280;11543;43.144;24.684;2023-04-01T17:44:49;97610.31;;;12.40;87.47
22753;BME280;11543;43.144;24.684;2023-04-01T17:58:20;97586.16;;;12.88;85.04
22753;BME280;11543;43.144;24.684;2023-04-01T18:00:51;97577.97;;;13.02;84.32
22753;BME280;11543;43.144;24.684;2023-04-01T18:09:29;97553.88;;;13.42;81.51
22753;BME280;11543;43.144;24.684;2023-04-01T18:12:09;97567.53;;;13.41;80.54
22753;BME280;11543;43.144;24.684;2023-04-01T18:17:30;97620.03;;;13.64;79.81
22753;BME280;11543;43.144;24.684;2023-04-01T18:20:17;97616.28;;;13.72;78.96
22753;BME280;11543;43.144;24.684;2023-04-01T18:25:39;97615.88;;;13.75;77.43
22753;BME280;11543;43.144;24.684;2023-04-01T18:28:33;97634.56;;;13.83;77.31
22753;BME280;11543;43.144;24.684;2023-04-01T18:33:53;97619.59;;;13.61;77.38
22753;BME280;11543;43.144;24.684;2023-04-01T18:36:51;97617.06;;;13.39;77.87
22753;BME280;11543;43.144;24.684;2023-04-01T18:39:38;97616.28;;;13.04;79.34
22753;BME280;11543;43.144;24.684;2023-04-01T18:44:53;97645.84;;;12.98;80.38
22753;BME280;11543;43.144;24.684;2023-04-01T18:47:45;97643.78;;;13.00;80.62
22753;BME280;11543;43.144;24.684;2023-04-01T18:52:54;97648.69;;;12.90;81.04
22753;BME280;11543;43.144;24.684;2023-04-01T18:55:31;97650.38;;;12.97;80.89
22753;BME280;11543;43.144;24.684;2023-04-01T18:58:14;97654.63;;;13.13;80.61
22753;BME280;11543;43.144;24.684;2023-04-01T19:00:54;97639.50;;;13.12;80.04
22753;BME280;11543;43.144;24.684;2023-04-01T19:06:02;97663.47;;;13.35;79.33
22753;BME280;11543;43.144;24.684;2023-04-01T19:08:35;97668.94;;;13.14;78.77
22753;BME280;11543;43.144;24.684;2023-04-01T19:11:19;97669.13;;;13.12;78.84
22753;BME280;11543;43.144;24.684;2023-04-01T19:16:43;97686.78;;;12.87;78.44
22753;BME280;11543;43.144;24.684;2023-04-01T19:21:58;97680.28;;;12.74;78.34
22753;BME280;11543;43.144;24.684;2023-04-01T19:27:24;97690.75;;;12.63;78.47
22753;BME280;11543;43.144;24.684;2023-04-01T19:30:02;97694.09;;;12.65;78.53
22753;BME280;11543;43.144;24.684;2023-04-01T19:35:47;97692.66;;;12.41;78.37
22753;BME280;11543;43.144;24.684;2023-04-01T19:38:53;97703.91;;;12.23;78.29
22753;BME280;11543;43.144;24.684;2023-04-01T19:41:55;97697.16;;;12.12;78.28
22753;BME280;11543;43.144;24.684;2023-04-01T19:56:19;97694.19;;;11.50;80.02
22753;BME280;11543;43.144;24.684;2023-04-01T20:01:33;97699.13;;;11.46;80.94
22753;BME280;11543;43.144;24.684;2023-04-01T20:04:11;97682.47;;;11.36;81.07
22753;BME280;11543;43.144;24.684;2023-04-01T20:06:44;97686.41;;;11.55;80.63
22753;BME280;11543;43.144;24.684;2023-04-01T20:14:51;97691.06;;;12.04;78.74
22753;BME280;11543;43.144;24.684;2023-04-01T20:17:24;97673.09;;;12.04;77.81
22753;BME280;11543;43.144;24.684;2023-04-01T20:25:33;97702.28;;;11.86;77.06
22753;BME280;11543;43.144;24.684;2023-04-01T20:28:28;97701.75;;;11.97;77.22
22753;BME280;11543;43.144;24.684;2023-04-01T20:45:15;97710.97;;;12.09;76.00
22753;BME280;11543;43.144;24.684;2023-04-01T20:53:20;97733.59;;;12.36;75.22
22753;BME280;11543;43.144;24.684;2023-04-01T20:56:12;97733.91;;;12.48;74.96
22753;BME280;11543;43.144;24.684;2023-04-01T20:58:51;97724.94;;;12.41;74.32
22753;BME280;11543;43.144;24.684;2023-04-01T21:06:42;97729.09;;;12.43;74.37
22753;BME280;11543;43.144;24.684;2023-04-01T21:15:13;97732.88;;;12.49;74.06
22753;BME280;11543;43.144;24.684;2023-04-01T21:17:58;97738.75;;;12.59;73.68
22753;BME280;11543;43.144;24.684;2023-04-01T21:26:03;97743.66;;;12.28;74.20
22753;BME280;11543;43.144;24.684;2023-04-01T21:28:34;97745.19;;;12.37;73.86
22753;BME280;11543;43.144;24.684;2023-04-01T21:34:07;97758.34;;;12.10;72.97
22753;BME280;11543;43.144;24.684;2023-04-01T21:53:08;97758.78;;;11.93;73.36
22753;BME280;11543;43.144;24.684;2023-04-01T21:56:00;97764.88;;;12.01;73.35
22753;BME280;11543;43.144;24.684;2023-04-01T22:15:01;97741.34;;;12.25;70.73
22753;BME280;11543;43.144;24.684;2023-04-01T22:18:32;97746.34;;;12.28;70.69
22753;BME280;11543;43.144;24.684;2023-04-01T22:23:48;97741.16;;;12.26;69.98
22753;BME280;11543;43.144;24.684;2023-04-01T22:32:31;97755.19;;;12.22;69.12
22753;BME280;11543;43.144;24.684;2023-04-01T22:35:13;97745.84;;;12.18;69.83
22753;BME280;11543;43.144;24.684;2023-04-01T22:37:51;97745.84;;;12.18;69.65
22753;BME280;11543;43.144;24.684;2023-04-01T22:43:06;97743.63;;;12.06;69.72
22753;BME280;11543;43.144;24.684;2023-04-01T22:45:45;97749.53;;;12.17;70.05
22753;BME280;11543;43.144;24.684;2023-04-01T22:48:33;97755.66;;;12.10;69.95
22753;BME280;11543;43.144;24.684;2023-04-01T22:51:11;97738.69;;;12.10;69.75
22753;BME280;11543;43.144;24.684;2023-04-01T22:56:41;97720.31;;;11.92;69.55
22753;BME280;11543;43.144;24.684;2023-04-01T22:59:15;97724.94;;;11.98;69.32
22753;BME280;11543;43.144;24.684;2023-04-01T23:01:51;97738.50;;;11.90;69.26
22753;BME280;11543;43.144;24.684;2023-04-01T23:04:24;97747.47;;;11.97;69.36
22753;BME280;11543;43.144;24.684;2023-04-01T23:06:56;97741.38;;;11.89;69.17
22753;BME280;11543;43.144;24.684;2023-04-01T23:09:28;97742.84;;;11.76;69.18
22753;BME280;11543;43.144;24.684;2023-04-01T23:11:58;97731.47;;;11.74;68.61
22753;BME280;11543;43.144;24.684;2023-04-01T23:19:52;97752.56;;;11.92;68.18
22753;BME280;11543;43.144;24.684;2023-04-01T23:22:43;97762.56;;;11.98;67.94
22753;BME280;11543;43.144;24.684;2023-04-01T23:27:56;97751.03;;;11.83;68.10
22753;BME280;11543;43.144;24.684;2023-04-01T23:30:51;97763.69;;;11.89;68.11
22753;BME280;11543;43.144;24.684;2023-04-01T23:35:57;97757.88;;;11.71;67.37
22753;BME280;11543;43.144;24.684;2023-04-01T23:38:34;97744.56;;;11.77;66.82
22753;BME280;11543;43.144;24.684;2023-04-01T23:41:01;97756.03;;;11.71;65.96
22753;BME280;11543;43.144;24.684;2023-04-01T23:43:30;97755.38;;;11.84;66.46
22753;BME280;11543;43.144;24.684;2023-04-01T23:45:58;97740.22;;;11.62;65.85
22753;BME280;11543;43.144;24.684;2023-04-01T23:48:32;97741.50;;;11.66;65.74
22753;BME280;11543;43.144;24.684;2023-04-01T23:50:58;97737.66;;;11.75;65.63
22753;BME280;11543;43.144;24.684;2023-04-01T23:53:28;97754.25;;;11.93;65.71
22753;BME280;11543;43.144;24.684;2023-04-01T23:55:55;97739.78;;;11.94;65.94
22753;BME280;11543;43.144;24.684;2023-04-01T23:58:42;97716.47;;;11.80;65.34
